Erwinville, Louisiana
Current Conditions -  °F | °C
As of 8:35 PM on Sunday 23 Nov 2014 (Local Time) from KHZR Reporting Station
Clear Clear  
Wind Chill: 66°   Ceiling: Unl
Heat Index: 66°   Visibility: 7mi
Dew Point: 64°   Wind: 14mph
Humidity: 93%   Direction: 190°S
Pressure: 29.67"   Gusts: NA
Location:  30.53°N, 91.41°W
Report Text: KHZR 240235Z AUTO 19012KT 7SM CLR 19/18 A2967 RMK AO2 T01910179
Loading
Personal Weather Stations






























Interactive Weather Map New forecast layout! Learn more

10-Day Weather Forecast

Advertisements
Track Severe Weather on mobile